Decoded Metar for VOML (MANGALORE in INDIA) (IATA:IXE) | Meteo·Mobile Aviation Weather
aviador You're here:

VOML Decoded Metar

MANGALORE in INDIA
Report Time2019-10-22 07:00:00
UTC Time2019-10-22 07:12:43
Flight Rules vfr VFR
Wind210° at 05 kt
W.Decomp.*RWY 24: 4.4 kt HW 2.4 kt LCW
RWY 27: 2.6 kt HW 4.3 kt LCW
Visibility8000 m
Phenomena:N/A
Clouds:Few 012 Hf
Scattered 020 Hf
Broken 090 Hf
Expected CloudBase > 1,200 ft AGL from Temp-Dew spread
Ceiling9,000 ft
Temp28°C (ISA +14)
Dew Point25°C (84% RH)
Heat Index32.7°C
QNH1009 hPa
Density Alt2,461 ft
Elevation338 ft
Report Wrong Elevation
Raw Report
METAR VOML 220700Z 21005KT 8000 FEW012 SCT020 BKN090 28/25 Q1009
NOSIG=

Extra information for VOML:More info

Metar Taf Metar & Taf Last 4 Metars F.Rules Stats Wind Profile Meteogram Temp Stats Airport Information Weather charts Add Link Nearby VenuesMetar ALERT Operation Metar Decoded Social comments